Time;durP1;ratioP1;P1;durP2;ratioP2;P2;SDS_P1;SDS_P2;PMS_P1;PMS_P2;Temp;Humidity;BMP_temperature;BMP_pressure;BME280_temperature;BME280_humidity;BME280_pressure;Samples;Min_cycle;Max_cycle;Signal;HPM_P1;HPM_P2
2024/02/23 00:00:26;;;;;;;29.02;14.18;;;;;;;6.01;65.25;93625.44;5062858;28;20028;-83
2024/02/23 00:02:53;;;;;;;30.42;13.35;;;;;;;6.06;65.17;93635.91;5063330;28;20191;-84
2024/02/23 00:05:19;;;;;;;30.27;13.27;;;;;;;6.11;64.96;93645.66;5063138;28;20021;-84
2024/02/23 00:07:45;;;;;;;25.60;12.65;;;;;;;6.09;64.73;93640.66;5062263;28;20314;-84
2024/02/23 00:10:10;;;;;;;29.13;12.68;;;;;;;6.07;64.67;93626.94;5061958;28;20037;-82
2024/02/23 00:12:35;;;;;;;23.95;11.88;;;;;;;6.11;64.61;93619.97;5062546;28;20037;-83
2024/02/23 00:15:01;;;;;;;23.02;10.80;;;;;;;6.17;64.21;93647.94;5061626;28;20025;-83
2024/02/23 00:17:26;;;;;;;20.40;10.13;;;;;;;6.25;62.96;93646.47;5062976;28;20315;-83
2024/02/23 00:19:53;;;;;;;16.98;9.27;;;;;;;5.93;63.93;93620.78;5063441;28;20017;-84
2024/02/23 00:22:18;;;;;;;20.90;9.40;;;;;;;6.01;63.79;93649.25;5063005;28;20020;-84
2024/02/23 00:24:43;;;;;;;18.00;10.35;;;;;;;6.01;63.99;93652.66;5063279;28;20059;-84
2024/02/23 00:27:09;;;;;;;23.35;9.55;;;;;;;6.08;63.85;93648.88;5062656;28;20062;-85
2024/02/23 00:29:35;;;;;;;17.80;8.18;;;;;;;6.00;63.19;93640.53;5062988;28;20021;-85
2024/02/23 00:32:00;;;;;;;15.43;7.53;;;;;;;6.12;63.03;93644.56;5063058;28;20024;-85
2024/02/23 00:34:26;;;;;;;19.80;9.55;;;;;;;6.16;63.07;93629.69;5062107;28;20307;-82
2024/02/23 00:36:51;;;;;;;14.88;8.80;;;;;;;6.20;63.27;93636.75;5062761;28;20025;-88
2024/02/23 00:39:17;;;;;;;14.32;8.63;;;;;;;6.17;62.83;93634.69;5063025;28;20017;-85
2024/02/23 00:41:42;;;;;;;20.30;9.15;;;;;;;6.26;62.55;93628.72;5061971;28;20029;-85
2024/02/23 00:44:07;;;;;;;18.15;9.00;;;;;;;6.26;62.22;93618.16;5062578;28;20071;-82
2024/02/23 00:46:33;;;;;;;17.40;9.02;;;;;;;6.23;62.32;93617.66;5062481;28;20052;-82
2024/02/23 00:48:59;;;;;;;15.82;8.55;;;;;;;6.10;62.65;93631.63;5062600;28;20025;-83
2024/02/23 00:51:24;;;;;;;23.95;9.10;;;;;;;5.94;63.13;93603.81;5062929;28;20016;-83
2024/02/23 00:53:50;;;;;;;18.88;8.68;;;;;;;5.92;63.88;93603.31;5062505;28;20064;-85
2024/02/23 00:56:15;;;;;;;19.85;8.38;;;;;;;5.93;63.92;93605.69;5063111;28;20716;-85
2024/02/23 00:58:40;;;;;;;16.10;7.82;;;;;;;5.95;64.04;93616.00;5062548;28;20282;-85
2024/02/23 01:01:06;;;;;;;18.25;8.43;;;;;;;5.98;63.91;93613.59;5062645;28;20017;-82
2024/02/23 01:03:31;;;;;;;17.45;9.18;;;;;;;5.99;63.30;93601.91;5066051;28;20311;-81
2024/02/23 01:05:57;;;;;;;15.68;8.27;;;;;;;6.01;63.44;93617.50;5065815;28;20319;-81
2024/02/23 01:08:22;;;;;;;16.27;9.10;;;;;;;6.00;63.28;93597.41;5066330;28;20017;-82
2024/02/23 01:10:48;;;;;;;19.50;7.90;;;;;;;5.91;63.29;93601.75;5065793;28;20219;-83
2024/02/23 01:13:13;;;;;;;22.20;7.35;;;;;;;5.90;63.32;93616.81;5065957;28;20219;-83
2024/02/23 01:15:39;;;;;;;14.90;8.10;;;;;;;5.93;63.41;93592.47;5065424;28;20017;-83
2024/02/23 01:18:08;;;;;;;15.23;8.02;;;;;;;5.80;63.92;93591.34;5066415;28;20025;-83
2024/02/23 01:20:34;;;;;;;16.60;7.35;;;;;;;5.85;64.29;93605.56;5065817;28;20024;-84
2024/02/23 01:22:59;;;;;;;16.02;6.47;;;;;;;5.89;63.72;93596.75;5066571;28;20028;-85
2024/02/23 01:25:25;;;;;;;13.30;7.22;;;;;;;5.89;63.59;93604.69;5066721;28;20013;-82
2024/02/23 01:27:50;;;;;;;11.82;6.95;;;;;;;5.94;63.92;93583.47;5065674;28;20024;-79
2024/02/23 01:30:15;;;;;;;14.98;7.47;;;;;;;5.95;63.91;93592.22;5065976;28;20331;-78
2024/02/23 01:32:41;;;;;;;14.20;7.28;;;;;;;6.00;63.75;93602.69;5065622;28;20079;-79
2024/02/23 01:35:07;;;;;;;16.42;7.50;;;;;;;6.01;63.83;93577.81;5065404;28;20021;-78
2024/02/23 01:37:33;;;;;;;13.82;7.53;;;;;;;6.04;63.66;93579.88;5065445;28;20231;-78
2024/02/23 01:39:59;;;;;;;12.70;7.10;;;;;;;6.01;63.75;93583.09;5065765;28;20087;-79
2024/02/23 01:42:25;;;;;;;14.75;8.23;;;;;;;6.03;63.82;93579.09;5065551;28;20235;-78
2024/02/23 01:44:51;;;;;;;15.05;7.35;;;;;;;6.07;63.75;93574.00;5065455;28;20029;-79
2024/02/23 01:47:17;;;;;;;13.95;7.38;;;;;;;6.02;64.13;93564.31;5065328;28;20025;-79
2024/02/23 01:49:45;;;;;;;16.65;7.55;;;;;;;6.06;64.09;93577.72;5065342;28;20044;-83
2024/02/23 01:52:11;;;;;;;18.40;7.95;;;;;;;6.08;63.93;93583.50;5065442;28;20029;-84
2024/02/23 01:54:37;;;;;;;15.38;7.85;;;;;;;5.90;63.65;93563.16;5065090;28;20208;-84
2024/02/23 01:57:03;;;;;;;13.45;7.10;;;;;;;5.99;63.56;93566.75;5065205;28;20064;-80
2024/02/23 01:59:29;;;;;;;13.82;7.40;;;;;;;5.89;63.99;93567.66;5065142;28;20044;-80
2024/02/23 02:01:55;;;;;;;13.02;7.60;;;;;;;5.98;63.55;93554.56;5065166;28;20024;-80
2024/02/23 02:04:21;;;;;;;13.35;7.50;;;;;;;5.95;63.80;93539.28;5065208;28;20032;-80
2024/02/23 02:06:47;;;;;;;16.40;7.10;;;;;;;5.99;63.80;93556.16;5065023;28;20084;-80
2024/02/23 02:09:13;;;;;;;14.05;7.32;;;;;;;5.94;63.47;93562.31;5065097;28;20029;-80
2024/02/23 02:11:46;;;;;;;14.27;7.15;;;;;;;5.92;63.19;93558.34;5064795;28;20044;-79
2024/02/23 02:14:11;;;;;;;13.18;8.02;;;;;;;5.80;63.63;93549.03;5064697;28;20021;-77
2024/02/23 02:16:37;;;;;;;18.35;7.57;;;;;;;5.79;63.73;93552.75;5064844;28;20039;-78
2024/02/23 02:19:02;;;;;;;14.27;7.75;;;;;;;5.87;63.98;93558.44;5064974;28;20107;-78
2024/02/23 02:21:28;;;;;;;15.10;8.40;;;;;;;5.86;64.37;93546.28;5064604;28;20021;-78
2024/02/23 02:23:53;;;;;;;12.15;6.93;;;;;;;5.85;63.97;93561.38;5064223;28;20268;-77
2024/02/23 02:26:19;;;;;;;15.07;7.75;;;;;;;5.64;64.29;93576.81;5064343;28;20029;-78
2024/02/23 02:28:44;;;;;;;16.60;8.10;;;;;;;5.53;64.31;93565.56;5064449;28;20020;-79
2024/02/23 02:31:10;;;;;;;15.23;7.20;;;;;;;5.41;64.49;93555.47;5064375;28;20021;-78
2024/02/23 02:33:35;;;;;;;13.65;7.45;;;;;;;5.46;65.23;93569.69;5064305;28;20024;-78
2024/02/23 02:36:01;;;;;;;16.35;7.63;;;;;;;5.53;64.62;93555.00;5064169;28;20047;-78
2024/02/23 02:38:26;;;;;;;14.80;7.50;;;;;;;5.50;64.44;93560.88;5064243;28;20040;-78
2024/02/23 02:40:51;;;;;;;16.98;8.05;;;;;;;5.54;64.97;93561.88;5064238;28;20040;-79
2024/02/23 02:43:17;;;;;;;12.27;7.03;;;;;;;5.59;64.55;93564.44;5064533;28;20020;-78
2024/02/23 02:45:43;;;;;;;13.65;6.35;;;;;;;5.70;64.38;93558.97;5064460;28;20059;-78
2024/02/23 02:48:09;;;;;;;18.38;7.45;;;;;;;5.74;64.69;93566.06;5064102;28;20349;-79
2024/02/23 02:50:35;;;;;;;11.88;7.18;;;;;;;5.79;65.06;93563.31;5064700;28;20025;-79
2024/02/23 02:53:00;;;;;;;14.88;7.18;;;;;;;5.89;64.37;93561.59;5064526;28;20219;-83
2024/02/23 02:55:26;;;;;;;12.90;6.85;;;;;;;5.94;64.34;93551.72;5064143;28;20056;-83
2024/02/23 02:57:51;;;;;;;12.35;6.93;;;;;;;6.03;64.04;93562.44;5064205;28;20342;-82
2024/02/23 03:00:17;;;;;;;17.15;7.78;;;;;;;6.08;63.57;93564.97;5063904;28;20303;-81
2024/02/23 03:02:42;;;;;;;19.38;7.90;;;;;;;6.10;63.62;93554.88;5063832;28;20012;-81
2024/02/23 03:05:08;;;;;;;14.00;7.25;;;;;;;6.14;63.58;93563.03;5063794;28;20021;-83
2024/02/23 03:07:33;;;;;;;15.50;7.25;;;;;;;6.13;63.57;93554.31;5063893;28;20013;-82
2024/02/23 03:09:58;;;;;;;16.17;7.15;;;;;;;6.18;63.49;93564.03;5063668;28;20017;-80
2024/02/23 03:12:24;;;;;;;12.32;6.53;;;;;;;6.21;63.50;93572.16;5063688;28;20017;-81
2024/02/23 03:14:49;;;;;;;21.52;7.45;;;;;;;5.98;64.12;93560.66;5064089;28;20236;-80
2024/02/23 03:17:15;;;;;;;14.27;7.22;;;;;;;6.08;64.04;93564.97;5063567;28;20025;-84
2024/02/23 03:19:40;;;;;;;14.48;7.03;;;;;;;6.05;63.91;93568.22;5063266;28;20028;-76
2024/02/23 03:22:06;;;;;;;15.18;7.53;;;;;;;6.02;63.64;93566.13;5063202;28;20360;-76
2024/02/23 03:24:31;;;;;;;15.30;7.55;;;;;;;6.02;63.85;93566.13;5062771;28;20021;-76
2024/02/23 03:27:02;;;;;;;12.13;6.80;;;;;;;6.06;63.79;93572.41;5063254;28;20028;-77
2024/02/23 03:29:29;;;;;;;14.57;7.03;;;;;;;6.07;63.96;93566.06;5063091;28;20020;-76
2024/02/23 03:31:55;;;;;;;12.10;6.97;;;;;;;6.11;63.93;93575.00;5063105;28;20029;-76
2024/02/23 03:34:20;;;;;;;13.02;7.05;;;;;;;6.01;63.86;93577.81;5062942;28;20066;-76
2024/02/23 03:36:46;;;;;;;12.35;6.90;;;;;;;5.96;64.27;93567.31;5063129;28;20024;-77
2024/02/23 03:39:11;;;;;;;16.08;7.57;;;;;;;5.99;64.65;93562.22;5062892;28;20017;-77
2024/02/23 03:41:37;;;;;;;14.52;7.80;;;;;;;5.96;64.86;93569.94;5062945;28;20216;-77
2024/02/23 03:44:02;;;;;;;13.90;7.32;;;;;;;5.95;64.79;93565.75;5063253;28;20021;-78
2024/02/23 03:46:27;;;;;;;15.35;8.40;;;;;;;5.91;64.99;93554.94;5063183;28;20380;-78
2024/02/23 03:48:53;;;;;;;16.35;7.43;;;;;;;5.90;65.38;93560.50;5063048;28;20025;-80
2024/02/23 03:51:18;;;;;;;14.85;7.28;;;;;;;5.92;65.22;93561.81;5063030;28;20056;-80
2024/02/23 03:53:44;;;;;;;18.80;8.50;;;;;;;5.95;65.24;93565.75;5062796;28;20059;-76
2024/02/23 03:56:09;;;;;;;15.55;7.82;;;;;;;5.96;65.39;93556.72;5062955;28;20032;-78
2024/02/23 03:58:35;;;;;;;14.15;8.00;;;;;;;5.93;65.65;93552.00;5063334;28;20024;-79
2024/02/23 04:01:00;;;;;;;14.13;6.95;;;;;;;5.93;65.75;93557.28;5062850;28;20227;-79
2024/02/23 04:03:26;;;;;;;15.20;8.38;;;;;;;5.95;65.63;93568.41;5063217;28;20021;-79
2024/02/23 04:05:51;;;;;;;16.17;8.35;;;;;;;5.99;65.50;93566.75;5062905;28;20335;-79
2024/02/23 04:08:16;;;;;;;17.52;8.25;;;;;;;5.90;65.68;93573.72;5063077;28;20039;-79
2024/02/23 04:10:42;;;;;;;17.08;8.07;;;;;;;5.85;65.79;93555.31;5062878;28;20095;-79
2024/02/23 04:13:08;;;;;;;16.60;7.60;;;;;;;5.87;65.92;93563.75;5062875;28;20044;-79
2024/02/23 04:16:15;;;;;;;16.45;9.13;;;;;;;5.85;66.17;93581.75;5062739;28;20236;-78
2024/02/23 04:18:41;;;;;;;18.42;8.25;;;;;;;5.83;65.98;93580.19;5057416;28;20028;-78
2024/02/23 04:21:06;;;;;;;14.10;8.27;;;;;;;5.75;65.75;93572.13;5061605;28;20325;-79
2024/02/23 04:23:31;;;;;;;20.05;7.70;;;;;;;5.54;66.58;93584.91;5060995;28;20021;-79
2024/02/23 04:25:57;;;;;;;13.25;7.47;;;;;;;5.51;66.87;93569.59;5061568;28;20039;-78
2024/02/23 04:28:22;;;;;;;12.75;7.43;;;;;;;5.50;67.07;93574.09;5062455;28;20047;-78
2024/02/23 04:30:48;;;;;;;12.65;6.93;;;;;;;5.51;66.79;93585.44;5062684;28;20020;-78
2024/02/23 04:33:13;;;;;;;13.90;7.70;;;;;;;5.51;66.94;93580.16;5062698;28;20070;-86
2024/02/23 04:35:38;;;;;;;15.02;8.02;;;;;;;5.51;67.13;93585.44;5062847;28;20031;-80
2024/02/23 04:38:04;;;;;;;15.48;8.35;;;;;;;5.46;67.18;93583.69;5064311;28;20032;-74
2024/02/23 04:40:29;;;;;;;16.08;8.45;;;;;;;5.46;67.26;93583.69;5065987;28;20262;-75
2024/02/23 04:42:55;;;;;;;14.80;8.35;;;;;;;5.39;67.47;93591.97;5066152;28;20021;-74
2024/02/23 04:45:20;;;;;;;15.38;9.10;;;;;;;5.29;67.35;93581.56;5066387;28;20025;-79
2024/02/23 04:47:48;;;;;;;14.35;8.65;;;;;;;5.26;67.86;93576.03;5065227;28;20021;-80
2024/02/23 04:50:14;;;;;;;17.60;9.18;;;;;;;5.25;67.84;93588.47;5066368;28;20021;-81
2024/02/23 04:52:39;;;;;;;17.13;8.70;;;;;;;5.25;68.03;93590.31;5064865;28;20370;-75
2024/02/23 04:55:05;;;;;;;19.83;9.75;;;;;;;5.24;67.96;93584.25;5065898;28;20048;-73
2024/02/23 04:57:31;;;;;;;17.35;9.13;;;;;;;5.23;67.99;93554.41;5065792;28;20036;-75
2024/02/23 04:59:57;;;;;;;19.95;9.80;;;;;;;5.26;67.93;93584.75;5065922;28;20362;-75
2024/02/23 05:02:22;;;;;;;20.30;9.60;;;;;;;5.26;67.62;93597.97;5065666;28;20029;-75
2024/02/23 05:04:48;;;;;;;19.45;9.50;;;;;;;5.15;67.74;93580.66;5065600;28;20012;-75
2024/02/23 05:07:13;;;;;;;19.73;9.15;;;;;;;5.07;68.05;93602.44;5064357;28;20328;-74
2024/02/23 05:09:40;;;;;;;16.98;8.55;;;;;;;5.11;67.62;93601.59;5065751;28;20028;-77
2024/02/23 05:12:07;;;;;;;15.00;8.65;;;;;;;5.02;68.03;93593.50;5065755;28;20052;-77
2024/02/23 05:14:32;;;;;;;17.13;8.93;;;;;;;5.07;68.09;93611.16;5065500;28;20029;-76
2024/02/23 05:16:57;;;;;;;19.77;8.07;;;;;;;5.11;68.10;93601.59;5065388;28;20067;-76
2024/02/23 05:19:23;;;;;;;18.48;8.02;;;;;;;5.15;67.87;93609.72;5065330;28;20338;-76
2024/02/23 05:21:48;;;;;;;16.13;9.40;;;;;;;5.17;67.87;93616.31;5065417;28;20033;-79
2024/02/23 05:24:14;;;;;;;22.00;9.13;;;;;;;5.17;67.55;93621.59;5065559;28;20029;-79
2024/02/23 05:26:39;;;;;;;20.38;10.38;;;;;;;5.13;67.86;93619.78;5065366;28;20242;-79
2024/02/23 05:29:05;;;;;;;15.68;8.95;;;;;;;5.09;67.73;93624.06;5065658;28;20051;-79
2024/02/23 05:31:51;;;;;;;14.88;8.32;;;;;;;5.14;68.01;93616.09;5065720;28;20066;-77
2024/02/23 05:34:16;;;;;;;15.90;8.95;;;;;;;5.16;67.96;93621.88;5066332;28;20048;-78
2024/02/23 05:36:43;;;;;;;15.98;7.75;;;;;;;5.20;67.83;93613.09;5065839;28;20323;-78
2024/02/23 05:39:09;;;;;;;21.05;7.97;;;;;;;5.23;67.67;93619.66;5066037;28;20204;-78
2024/02/23 05:41:36;;;;;;;17.35;8.57;;;;;;;5.28;67.60;93616.97;5065946;28;20040;-81
2024/02/23 05:44:03;;;;;;;16.45;8.30;;;;;;;5.30;67.35;93620.09;5065405;28;20200;-79
2024/02/23 05:46:29;;;;;;;19.15;7.97;;;;;;;5.34;67.42;93613.19;5065694;28;20314;-79
2024/02/23 05:48:54;;;;;;;16.85;9.23;;;;;;;5.41;66.94;93620.75;5065430;28;20029;-80
2024/02/23 05:51:20;;;;;;;21.45;8.73;;;;;;;5.46;66.72;93638.41;5065687;28;20243;-80
2024/02/23 05:53:45;;;;;;;16.45;8.80;;;;;;;5.35;66.95;93622.69;5065638;28;20048;-81
2024/02/23 05:56:10;;;;;;;13.20;8.00;;;;;;;5.38;67.17;93621.31;5065543;28;20048;-81
2024/02/23 05:58:38;;;;;;;23.27;9.88;;;;;;;5.46;67.08;93622.56;5065655;28;20215;-84
2024/02/23 06:01:03;;;;;;;14.57;8.70;;;;;;;5.54;66.53;93637.75;5065708;28;20092;-81
2024/02/23 06:03:29;;;;;;;20.10;8.48;;;;;;;5.59;66.43;93635.81;5065677;28;20051;-86
2024/02/23 06:05:54;;;;;;;17.17;8.63;;;;;;;5.64;66.38;93619.09;5065723;28;20041;-86
2024/02/23 06:08:20;;;;;;;15.85;9.00;;;;;;;5.73;66.33;93641.16;5065249;28;20021;-86
2024/02/23 06:10:45;;;;;;;20.35;9.40;;;;;;;5.82;66.13;93633.34;5065728;28;20029;-86
2024/02/23 06:13:10;;;;;;;22.00;9.55;;;;;;;5.90;66.06;93645.16;5064197;28;20021;-86
2024/02/23 06:15:36;;;;;;;19.02;9.55;;;;;;;6.00;66.00;93642.38;5065514;28;20033;-77
2024/02/23 06:18:01;;;;;;;17.70;10.57;;;;;;;5.97;65.92;93621.81;5065267;28;20027;-77
2024/02/23 06:20:27;;;;;;;50.28;11.15;;;;;;;6.00;66.15;93643.19;5065198;28;20051;-83
2024/02/23 06:22:52;;;;;;;29.05;10.40;;;;;;;6.16;66.06;93650.84;5065295;28;20047;-84
2024/02/23 06:25:18;;;;;;;25.65;10.48;;;;;;;6.23;66.03;93633.53;5065112;28;20021;-83
2024/02/23 06:27:43;;;;;;;22.33;9.82;;;;;;;6.33;65.70;93637.06;5064760;28;20029;-83
2024/02/23 06:30:10;;;;;;;20.98;9.38;;;;;;;6.44;65.41;93649.06;5064796;28;20131;-82
2024/02/23 06:32:36;;;;;;;28.20;10.20;;;;;;;6.55;65.10;93652.31;5063597;28;20362;-82
2024/02/23 06:35:02;;;;;;;26.20;10.35;;;;;;;6.67;64.24;93659.78;5064654;28;20029;-82
2024/02/23 06:37:28;;;;;;;30.02;11.15;;;;;;;6.73;63.85;93642.72;5064926;28;20048;-82
2024/02/23 06:39:54;;;;;;;25.27;10.93;;;;;;;6.86;63.83;93647.25;5065127;28;20024;-81
2024/02/23 06:42:22;;;;;;;27.50;10.65;;;;;;;6.93;63.45;93636.25;5064819;28;20204;-80
2024/02/23 06:44:49;;;;;;;22.88;9.77;;;;;;;6.71;63.63;93655.47;5064779;28;20025;-82
2024/02/23 06:47:15;;;;;;;20.52;9.63;;;;;;;6.93;63.68;93663.53;5064593;28;20029;-80
2024/02/23 06:49:44;;;;;;;29.27;11.07;;;;;;;7.06;63.34;93650.56;5064753;28;20044;-80
2024/02/23 06:52:10;;;;;;;30.40;10.15;;;;;;;7.17;62.80;93638.69;5064584;28;20262;-80
2024/02/23 06:54:35;;;;;;;36.92;10.80;;;;;;;7.30;62.51;93643.16;5064282;28;20041;-80
2024/02/23 06:57:01;;;;;;;25.52;10.38;;;;;;;7.42;61.92;93648.75;5064384;28;20032;-83
2024/02/23 06:59:27;;;;;;;31.27;9.02;;;;;;;7.54;61.39;93647.44;5063843;28;20025;-81
2024/02/23 07:01:52;;;;;;;20.73;10.02;;;;;;;7.62;61.26;93654.69;5064746;28;20127;-81
2024/02/23 07:04:18;;;;;;;28.73;9.65;;;;;;;7.72;60.98;93651.03;5064476;28;20266;-81
2024/02/23 07:06:44;;;;;;;29.38;10.32;;;;;;;7.83;60.39;93661.09;5064458;28;20028;-82
2024/02/23 07:09:11;;;;;;;19.52;8.68;;;;;;;7.89;60.10;93655.69;5063827;28;20024;-83
2024/02/23 07:11:37;;;;;;;21.70;9.40;;;;;;;7.98;59.96;93648.59;5064370;28;20216;-82
2024/02/23 07:14:03;;;;;;;20.05;8.73;;;;;;;8.07;59.81;93652.09;5064148;28;20020;-84
2024/02/23 07:16:28;;;;;;;21.10;9.88;;;;;;;8.11;59.44;93653.06;5062789;28;20102;-79
2024/02/23 07:18:55;;;;;;;17.60;9.82;;;;;;;8.22;59.88;93657.03;5063805;28;20036;-75
2024/02/23 07:21:20;;;;;;;30.55;10.73;;;;;;;8.33;60.51;93646.16;5062639;28;20020;-75
2024/02/23 07:23:46;;;;;;;24.02;10.73;;;;;;;8.41;60.97;93622.34;5063764;28;20422;-75
2024/02/23 07:26:11;;;;;;;27.10;9.57;;;;;;;8.43;59.00;93637.97;5063665;28;20025;-76
2024/02/23 07:28:36;;;;;;;23.40;9.70;;;;;;;8.54;60.61;93639.28;5063567;28;20134;-75
2024/02/23 07:31:02;;;;;;;16.25;8.20;;;;;;;8.56;58.74;93631.78;5063186;28;20056;-77
2024/02/23 07:33:27;;;;;;;18.38;9.32;;;;;;;8.58;59.26;93634.91;5063443;28;20223;-77
2024/02/23 07:35:53;;;;;;;21.38;9.82;;;;;;;8.66;58.72;93640.59;5063833;28;20028;-77
2024/02/23 07:38:19;;;;;;;17.75;9.05;;;;;;;8.74;59.18;93618.59;5063594;28;20055;-77
2024/02/23 07:40:44;;;;;;;20.27;10.27;;;;;;;8.82;58.35;93644.41;5063267;28;20307;-77
2024/02/23 07:43:11;;;;;;;23.20;10.15;;;;;;;8.88;58.58;93653.81;5063196;28;20200;-77
2024/02/23 07:45:37;;;;;;;28.10;11.20;;;;;;;8.96;58.08;93639.00;5061636;28;20338;-77
2024/02/23 07:48:03;;;;;;;23.88;10.27;;;;;;;8.83;58.43;93636.13;5063778;28;20227;-77
2024/02/23 07:50:28;;;;;;;21.50;10.05;;;;;;;8.94;58.81;93641.94;5064005;28;20092;-77
2024/02/23 07:52:54;;;;;;;27.15;11.05;;;;;;;8.99;57.94;93641.03;5063538;28;20044;-78
2024/02/23 07:55:19;;;;;;;20.00;10.15;;;;;;;8.94;59.19;93644.59;5063176;28;20096;-77
2024/02/23 07:57:44;;;;;;;20.70;10.32;;;;;;;9.02;59.12;93651.81;5063595;28;20040;-78
2024/02/23 08:00:10;;;;;;;19.75;10.88;;;;;;;9.13;58.97;93640.91;5063151;28;20223;-77
2024/02/23 08:02:36;;;;;;;19.83;10.15;;;;;;;9.19;58.77;93659.06;5063149;28;20056;-78
2024/02/23 08:05:01;;;;;;;19.90;10.70;;;;;;;9.30;58.57;93646.28;5063197;28;20389;-78
2024/02/23 08:07:28;;;;;;;26.38;10.30;;;;;;;9.39;58.49;93631.13;5063184;28;20032;-78
2024/02/23 08:09:53;;;;;;;20.42;10.98;;;;;;;9.44;58.41;93638.97;5063107;28;20021;-79
2024/02/23 08:12:19;;;;;;;22.67;11.25;;;;;;;9.49;58.19;93629.25;5067303;28;20338;-79
2024/02/23 08:14:46;;;;;;;22.67;9.70;;;;;;;9.54;58.13;93645.06;5067624;28;20029;-79
2024/02/23 08:17:12;;;;;;;24.42;10.75;;;;;;;9.56;57.87;93630.34;5067283;28;20025;-80
2024/02/23 08:19:37;;;;;;;19.23;9.55;;;;;;;9.62;57.39;93625.66;5067250;28;20037;-79
2024/02/23 08:22:03;;;;;;;20.58;10.15;;;;;;;9.65;58.07;93638.34;5067141;28;20021;-78
2024/02/23 08:24:28;;;;;;;28.05;11.57;;;;;;;9.68;57.66;93620.97;5067005;28;20084;-78
2024/02/23 08:26:53;;;;;;;26.77;10.07;;;;;;;9.75;57.83;93626.59;5066822;28;20028;-78
2024/02/23 08:29:19;;;;;;;27.70;10.75;;;;;;;9.81;57.01;93639.47;5067081;28;20145;-78
2024/02/23 08:31:45;;;;;;;23.02;10.77;;;;;;;9.91;57.72;93634.91;5067213;28;20016;-78
2024/02/23 08:34:10;;;;;;;32.38;11.38;;;;;;;10.07;57.56;93635.22;5066838;28;20067;-78
2024/02/23 08:36:36;;;;;;;22.85;11.48;;;;;;;10.21;57.00;93627.84;5066823;28;20099;-78
2024/02/23 08:39:02;;;;;;;24.70;12.60;;;;;;;10.32;57.15;93617.66;5066632;28;20240;-78
2024/02/23 08:41:28;;;;;;;26.88;11.32;;;;;;;10.48;56.88;93621.38;5066860;28;20028;-74
2024/02/23 08:43:55;;;;;;;23.77;10.25;;;;;;;10.60;56.02;93624.19;5066734;28;20332;-77
2024/02/23 08:46:21;;;;;;;24.35;10.23;;;;;;;10.71;55.34;93627.28;5066269;28;20090;-77
2024/02/23 08:48:47;;;;;;;26.70;10.20;;;;;;;10.81;55.24;93629.59;5066573;28;20028;-76
2024/02/23 08:51:12;;;;;;;22.80;10.43;;;;;;;10.94;55.03;93638.47;5065204;28;20044;-76
2024/02/23 08:53:38;;;;;;;32.38;13.07;;;;;;;10.90;54.71;93631.44;5066031;28;20075;-76
2024/02/23 08:56:04;;;;;;;32.65;12.63;;;;;;;11.02;54.70;93635.00;5066186;28;20084;-80
2024/02/23 08:58:30;;;;;;;17.33;9.55;;;;;;;11.06;54.64;93634.38;5064182;28;20036;-77
2024/02/23 09:00:55;;;;;;;28.27;11.10;;;;;;;11.19;54.53;93626.16;5065975;28;20032;-77
2024/02/23 09:03:21;;;;;;;17.08;9.25;;;;;;;11.33;53.74;93625.88;5066325;28;20033;-77
2024/02/23 09:05:47;;;;;;;19.27;9.82;;;;;;;11.44;53.58;93628.97;5066110;28;20082;-77
2024/02/23 09:08:12;;;;;;;21.05;9.05;;;;;;;11.55;53.35;93627.47;5064997;28;20028;-77
2024/02/23 09:10:38;;;;;;;22.65;8.32;;;;;;;11.68;51.97;93614.97;5065642;28;20065;-77
2024/02/23 09:13:03;;;;;;;18.73;8.43;;;;;;;11.81;51.84;93611.28;5065224;28;20028;-78
2024/02/23 09:15:29;;;;;;;16.00;7.97;;;;;;;11.94;51.56;93622.06;5065642;28;20051;-77
2024/02/23 09:17:54;;;;;;;20.33;7.38;;;;;;;12.06;50.42;93626.69;5066035;28;20245;-78
2024/02/23 09:20:20;;;;;;;20.00;8.23;;;;;;;11.92;49.77;93618.94;5065348;28;20017;-78
2024/02/23 09:22:45;;;;;;;17.50;7.93;;;;;;;12.11;50.28;93613.91;5064666;28;20025;-78
2024/02/23 09:25:10;;;;;;;12.48;6.55;;;;;;;12.28;48.09;93601.50;5065364;28;20037;-77
2024/02/23 09:27:40;;;;;;;10.70;5.65;;;;;;;12.41;48.14;93621.78;5065947;28;20033;-78
2024/02/23 09:30:06;;;;;;;14.27;7.40;;;;;;;12.55;47.89;93616.91;5065425;28;20094;-78
2024/02/23 09:32:31;;;;;;;19.52;6.65;;;;;;;12.73;47.00;93614.06;5065537;28;20021;-78
2024/02/23 09:34:56;;;;;;;14.38;6.18;;;;;;;12.88;46.46;93604.59;5065615;28;20025;-78
2024/02/23 09:37:22;;;;;;;14.18;6.78;;;;;;;13.03;45.61;93594.03;5065113;28;20017;-79
2024/02/23 09:39:47;;;;;;;7.57;3.83;;;;;;;13.04;45.05;93603.59;5065345;28;20028;-78
2024/02/23 09:42:13;;;;;;;5.63;3.20;;;;;;;13.27;44.09;93613.88;5066009;28;20119;-79
2024/02/23 09:44:39;;;;;;;6.32;2.33;;;;;;;13.43;43.20;93606.75;5065564;28;20088;-80
2024/02/23 09:47:10;;;;;;;6.25;3.40;;;;;;;13.59;44.39;93614.84;5065466;28;20021;-79
2024/02/23 09:49:42;;;;;;;6.22;3.40;;;;;;;13.75;42.47;93604.22;5065459;28;20246;-79
2024/02/23 09:52:11;;;;;;;5.53;3.28;;;;;;;13.59;42.84;93614.09;5065310;28;20055;-79
2024/02/23 09:54:40;;;;;;;7.05;3.10;;;;;;;13.72;43.35;93591.53;5065116;28;20446;-79
2024/02/23 09:57:10;;;;;;;9.07;2.72;;;;;;;13.89;41.71;93587.00;5065350;28;20189;-79
2024/02/23 09:59:36;;;;;;;4.80;2.47;;;;;;;14.01;42.23;93592.31;5065276;28;20021;-79
2024/02/23 10:02:05;;;;;;;13.38;3.30;;;;;;;14.06;41.95;93584.03;5064863;28;20092;-79
2024/02/23 10:04:31;;;;;;;23.17;3.28;;;;;;;14.19;41.68;93598.97;5065243;28;20216;-79
2024/02/23 10:06:56;;;;;;;5.90;3.08;;;;;;;14.39;41.69;93583.00;5097631;28;20148;-80
2024/02/23 10:09:21;;;;;;;4.43;2.22;;;;;;;14.53;40.90;93566.50;5064981;28;20088;-80
2024/02/23 10:11:53;;;;;;;4.53;2.28;;;;;;;14.49;40.20;93566.44;5064855;28;20023;-79
2024/02/23 10:14:19;;;;;;;4.35;2.20;;;;;;;14.72;40.84;93565.88;5064739;28;20025;-79
2024/02/23 10:16:44;;;;;;;3.92;1.80;;;;;;;14.84;39.67;93576.50;5064768;28;20062;-80
2024/02/23 10:19:10;;;;;;;5.90;2.25;;;;;;;15.00;39.46;93571.91;5063397;28;20023;-80
2024/02/23 10:21:35;;;;;;;8.65;2.10;;;;;;;15.18;38.41;93568.84;5063109;28;20047;-80
2024/02/23 10:24:02;;;;;;;9.70;2.25;;;;;;;15.11;38.78;93577.53;5063066;28;20040;-80
2024/02/23 10:26:27;;;;;;;3.17;2.00;;;;;;;15.06;37.98;93564.34;5062828;28;20021;-81
2024/02/23 10:28:53;;;;;;;3.85;1.60;;;;;;;15.13;38.04;93561.06;5063073;28;20025;-81
2024/02/23 10:31:19;;;;;;;5.10;2.22;;;;;;;15.18;38.80;93558.09;5063000;28;20268;-81
2024/02/23 10:33:44;;;;;;;4.93;2.10;;;;;;;15.21;37.67;93570.84;5064301;28;20115;-81
2024/02/23 10:36:11;;;;;;;3.20;1.80;;;;;;;15.17;37.30;93567.31;5064005;28;20024;-79
2024/02/23 10:38:41;;;;;;;4.38;2.28;;;;;;;15.02;37.09;93568.84;5064615;28;20314;-79
2024/02/23 10:41:06;;;;;;;3.47;1.88;;;;;;;14.94;36.55;93565.25;5064725;28;20247;-79
2024/02/23 10:43:46;;;;;;;6.20;1.90;;;;;;;14.77;36.66;93541.44;5064679;28;20032;-79
2024/02/23 10:46:15;;;;;;;12.02;2.30;;;;;;;14.57;38.07;93552.09;5064451;28;20378;-79
2024/02/23 10:48:42;;;;;;;9.02;3.45;;;;;;;14.69;37.45;93558.50;5064412;28;20253;-79
2024/02/23 10:51:08;;;;;;;7.25;2.13;;;;;;;14.82;37.94;93558.06;5064372;28;20037;-79
2024/02/23 10:53:34;;;;;;;4.88;2.65;;;;;;;14.77;37.88;93560.22;5064159;28;20039;-79
2024/02/23 10:56:00;;;;;;;3.42;1.80;;;;;;;14.89;37.27;93552.09;5064106;28;20033;-79
2024/02/23 10:58:26;;;;;;;3.72;2.15;;;;;;;15.04;37.72;93551.31;5064263;28;20051;-80
2024/02/23 11:00:59;;;;;;;8.05;2.20;;;;;;;15.04;36.62;93562.03;5064192;28;20020;-79
2024/02/23 11:03:25;;;;;;;5.07;2.20;;;;;;;14.80;37.55;93532.72;5064249;28;20021;-79
2024/02/23 11:05:50;;;;;;;3.63;1.77;;;;;;;14.89;37.50;93541.34;5064486;28;20074;-79
2024/02/23 11:08:19;;;;;;;9.30;2.08;;;;;;;14.99;38.07;93522.03;5063958;28;20193;-79
2024/02/23 11:10:54;;;;;;;4.78;1.70;;;;;;;15.08;36.67;93521.06;5064417;28;20035;-79
2024/02/23 11:13:39;;;;;;;8.00;1.55;;;;;;;14.89;36.73;93527.16;5064001;28;20207;-78
2024/02/23 11:16:06;;;;;;;4.35;1.50;;;;;;;14.89;36.45;93519.88;5063709;28;20016;-78
2024/02/23 11:18:34;;;;;;;6.43;1.80;;;;;;;14.95;36.98;93510.44;5064416;28;20040;-78
2024/02/23 11:21:07;;;;;;;9.13;2.97;;;;;;;15.11;37.08;93510.41;5064136;28;20040;-79
2024/02/23 11:23:51;;;;;;;7.93;1.92;;;;;;;15.20;36.77;93516.38;5063714;28;20021;-78
2024/02/23 11:26:16;;;;;;;5.85;2.17;;;;;;;15.31;36.43;93502.41;5062856;28;20051;-79